OIMC  Sarakhs  Airport

Sarakhs, Iran

Add Bookmark
ICAO OIMC
IATA CKT
Type Airport
Status Operational
Latitude
36° 30' 4" N
36.501202
Longitude
61° 3' 53" E
61.064899
Local (GMT +3.5 ) UTC
Dec 7, 2016 05:49 pm Dec 7, 2016 14:19
Sunrise-Sunset Local UTC
Begin Civil Twilight 05:54 am 02:24
Sunrise 06:23 am 02:53
Sunset 04:11 pm 12:41
End Civil Twilight 04:40 pm 13:10
VFR
VFR
MVFR
MVFR
IFR
IFR
LIFR
LIFR
Unknown
No Data

Current Weather

METAR Observed VFR
OIMC 071400Z 00000KT 9999 SCT030 OVC100 07/03 Q1027 Wed, Dec 7, 2016 @ 14:00 UTC
(19 Minutes ago)
Visual Flight Rules
Wind Visibility Clouds Conditions
Calm 10 km or more
  • Scattered at 3,000 ft AGL
  • Overcast at 10,000 ft AGL
  • No significant weather
Temperatures Readings Precipitation
Current Temp
7°C
45°F
Dewpoint
3°C
37°F
Humidity 76%
Altimeter 30.32" Hg
Sea Level Pressure 1,027 mb
Field Elevation
288 m
945 ft
None Recorded
-
-

CheckWX.com is intended as a tool to help pilots better visualize weather data. It is not intended as a substitute for an official weather briefing obtained from a Flight Service Station. CheckWX.com does not meet the FAA requirements for an official pre-flight weather briefing. Therefore, it's important that pilots still call and obtain an official FSS pre-flight weather briefing.

© 2007-2016 CheckWX.com
14:19:59 UTC